Main page
METAR-TAF:

METAR-TAF

Airports :

Mosjøen Airport. Kjærstad

Mosjøen, Norway

latitude: 65-48N, longitude: 013-08E, elevation: 70 m

Current weather observation

The report was made 14 minutes ago, at 21:50 UTC
Wind 5 kt from the South, varying between East/Southeast and South/Southwest
Temperature 1°C
Humidity 93%
Pressure 968 hPa
Visibility: 4000 m
snow showers

METAR: ENMS 172150Z 18005KT 120V210 4000 SHSN VV012 01/M00 Q0968 RMK WIND 412FT 17005KT 120V210

Time: 23:04 (22:04 UTC)


TAF: missing

Weather observations and forecasts of more than 4000 airports (METAR and TAF reports).

The available stations are represented by yellow and red dots on the map.

Hover mouse over dot to see the name of the station.

Then click to see weather observations and forecasts.

To change the map : click on the green buttons with a black cross to zoom in, on the green button with a dash to zoom out, or on the green arrows for adjacent maps.


METAR-TAF: